createdAt,value
2019-04-16T00:00:13.329Z,1003.67
2019-04-16T00:01:13.905Z,1003.67
2019-04-16T00:02:10.493Z,1003.68
2019-04-16T00:03:09.202Z,1003.68
2019-04-16T00:04:07.860Z,1003.68
2019-04-16T00:05:06.530Z,1003.63
2019-04-16T00:06:05.194Z,1003.63
2019-04-16T00:07:03.814Z,1003.56
2019-04-16T00:08:02.364Z,1003.58
2019-04-16T00:09:00.953Z,1003.57
2019-04-16T00:09:59.529Z,1003.55
2019-04-16T00:10:58.081Z,1003.55
2019-04-16T00:11:56.677Z,1003.54
2019-04-16T00:12:55.405Z,1003.54
2019-04-16T00:13:53.990Z,1003.55
2019-04-16T00:14:52.535Z,1003.58
2019-04-16T00:15:51.089Z,1003.58
2019-04-16T00:16:49.741Z,1003.56
2019-04-16T00:17:48.452Z,1003.54
2019-04-16T00:18:56.971Z,1003.49
2019-04-16T00:19:45.600Z,1003.53
2019-04-16T00:20:44.224Z,1003.47
2019-04-16T00:21:42.884Z,1003.5
2019-04-16T00:22:41.495Z,1003.46
2019-04-16T00:23:40.087Z,1003.46
2019-04-16T00:24:38.856Z,1003.43
2019-04-16T00:25:37.494Z,1003.44
2019-04-16T00:26:36.064Z,1003.44
2019-04-16T00:27:34.658Z,1003.44
2019-04-16T00:28:33.230Z,1003.39
2019-04-16T00:29:32.915Z,1003.4
2019-04-16T00:30:30.367Z,1003.46
2019-04-16T00:31:29.064Z,1003.38
2019-04-16T00:32:27.632Z,1003.36
2019-04-16T00:33:26.242Z,1003.36
2019-04-16T00:34:24.787Z,1003.4
2019-04-16T00:35:23.503Z,1003.41
2019-04-16T00:36:22.066Z,1003.4
2019-04-16T00:37:21.589Z,1003.4
2019-04-16T00:38:22.390Z,1003.38
2019-04-16T00:39:17.941Z,1003.36
2019-04-16T00:40:16.446Z,1003.34
2019-04-16T00:41:15.025Z,1003.38
2019-04-16T00:42:13.569Z,1003.3
2019-04-16T00:43:12.129Z,1003.23
2019-04-16T00:44:11.224Z,1003.24
2019-04-16T00:45:09.772Z,1003.25
2019-04-16T00:46:11.432Z,1003.23
2019-04-16T00:47:07.121Z,1003.19
2019-04-16T00:48:05.570Z,1003.16
2019-04-16T00:49:04.149Z,1003.15
2019-04-16T00:50:02.709Z,1003.16
2019-04-16T00:51:01.456Z,1003.16
2019-04-16T00:52:00.001Z,1003.22
2019-04-16T00:52:58.635Z,1003.17
2019-04-16T00:53:57.501Z,1003.2
2019-04-16T00:54:56.045Z,1003.22
2019-04-16T00:55:54.657Z,1003.19
2019-04-16T00:56:53.228Z,1003.13
2019-04-16T00:57:51.813Z,1003.17
2019-04-16T00:58:52.009Z,1003.21
2019-04-16T00:59:49.192Z,1003.25
2019-04-16T01:00:47.776Z,1003.26
2019-04-16T01:01:46.350Z,1003.21
2019-04-16T01:02:46.889Z,1003.21
2019-04-16T01:03:43.758Z,1003.19
2019-04-16T01:04:42.315Z,1003.18
2019-04-16T01:05:40.896Z,1003.15
2019-04-16T01:06:40.613Z,1003.19
2019-04-16T01:07:38.094Z,1003.09
2019-04-16T01:08:36.854Z,1003.15
2019-04-16T01:09:35.422Z,1003.14
2019-04-16T01:10:33.998Z,1003.14
2019-04-16T01:11:32.797Z,1003.08
2019-04-16T01:12:31.378Z,1003.13
2019-04-16T01:13:29.948Z,1003.13
2019-04-16T01:14:28.482Z,1003.09
2019-04-16T01:15:29.157Z,1003.05
2019-04-16T01:16:25.562Z,1003.05
2019-04-16T01:17:24.136Z,1003.05
2019-04-16T01:18:22.693Z,1003.05
2019-04-16T01:19:21.265Z,1003.06
2019-04-16T01:20:19.836Z,1003.02
2019-04-16T01:21:18.478Z,1003.02
2019-04-16T01:22:17.158Z,1002.99
2019-04-16T01:23:17.761Z,1002.94
2019-04-16T01:24:14.301Z,1002.97
2019-04-16T01:25:13.133Z,1002.98
2019-04-16T01:26:11.672Z,1002.97
2019-04-16T01:27:10.209Z,1002.98
2019-04-16T01:28:08.767Z,1002.97
2019-04-16T01:29:07.345Z,1002.94
2019-04-16T01:30:06.691Z,1002.96
2019-04-16T01:31:07.876Z,1002.95
2019-04-16T01:32:03.464Z,1002.95
2019-04-16T01:33:02.029Z,1002.97
2019-04-16T01:34:00.778Z,1002.93
2019-04-16T01:34:59.295Z,1002.93
2019-04-16T01:35:57.868Z,1002.94
2019-04-16T01:36:56.465Z,1002.95
2019-04-16T01:37:56.721Z,1002.94
2019-04-16T01:39:07.403Z,1002.93
2019-04-16T01:39:52.218Z,1002.93
2019-04-16T01:40:50.954Z,1002.97
2019-04-16T01:41:50.267Z,1002.98
2019-04-16T01:42:48.068Z,1002.95
2019-04-16T01:43:46.880Z,1003
2019-04-16T01:44:45.513Z,1002.99
2019-04-16T01:45:44.038Z,1002.99
2019-04-16T01:46:42.622Z,1003
2019-04-16T01:47:41.219Z,1003.02
2019-04-16T01:48:39.877Z,1003.02
2019-04-16T01:49:39.273Z,1002.98
2019-04-16T01:50:37.085Z,1002.98
2019-04-16T01:51:37.730Z,1003
2019-04-16T01:52:34.163Z,1002.98
2019-04-16T01:53:32.704Z,1003.01
2019-04-16T01:54:31.418Z,1003
2019-04-16T01:55:29.926Z,1002.99
2019-04-16T01:56:29.120Z,1003.03
2019-04-16T01:57:28.294Z,1003.01
2019-04-16T01:58:25.714Z,1003
2019-04-16T01:59:24.262Z,1003.05
2019-04-16T02:00:22.816Z,1003.07
2019-04-16T02:01:21.356Z,1003.07
2019-04-16T02:02:19.930Z,1003.04
2019-04-16T02:03:18.589Z,1003.04
2019-04-16T02:04:19.491Z,1003.05
2019-04-16T02:05:15.731Z,1003.06
2019-04-16T02:06:14.315Z,1003.08
2019-04-16T02:07:13.318Z,1003.05
2019-04-16T02:09:48.265Z,1003.09
2019-04-16T02:10:46.869Z,1003.12
2019-04-16T02:11:45.436Z,1003.11
2019-04-16T02:12:44.524Z,1003.12
2019-04-16T02:13:45.733Z,1003.08
2019-04-16T02:14:41.120Z,1003.07
2019-04-16T02:15:39.650Z,1003.14
2019-04-16T02:16:38.194Z,1003.1
2019-04-16T02:17:37.064Z,1003.13
2019-04-16T02:18:35.799Z,1003.11
2019-04-16T02:19:34.498Z,1003.1
2019-04-16T02:20:33.065Z,1003.04
2019-04-16T02:21:31.616Z,1003.09
2019-04-16T02:22:30.245Z,1003.05
2019-04-16T02:23:29.025Z,1003.09
2019-04-16T02:24:27.658Z,1003.11
2019-04-16T02:25:26.264Z,1003.04
2019-04-16T02:26:25.125Z,1003.09
2019-04-16T02:27:26.147Z,1003.11
2019-04-16T02:28:22.226Z,1003.03
2019-04-16T02:29:20.795Z,1003.07
2019-04-16T02:30:19.343Z,1003.06
2019-04-16T02:31:17.915Z,1003.06
2019-04-16T02:32:16.485Z,1003.02
2019-04-16T02:33:15.030Z,1003.08
2019-04-16T02:34:13.791Z,1003.06
2019-04-16T02:35:12.340Z,1003.04
2019-04-16T02:36:11.287Z,1003.05
2019-04-16T02:37:09.824Z,1003.06
2019-04-16T02:38:12.160Z,1003.05
2019-04-16T02:39:06.944Z,1003.07
2019-04-16T02:40:05.485Z,1003.05
2019-04-16T02:41:04.032Z,1003.06
2019-04-16T02:42:02.785Z,1003.08
2019-04-16T02:43:05.756Z,1003.09
2019-04-16T02:44:00.016Z,1003.09
2019-04-16T02:44:58.810Z,1003.17
2019-04-16T02:45:58.726Z,1003.14
2019-04-16T02:46:55.936Z,1003.14
2019-04-16T02:47:54.558Z,1003.13
2019-04-16T02:48:53.118Z,1003.15
2019-04-16T02:49:56.315Z,1003.12
2019-04-16T02:50:50.428Z,1003.1
2019-04-16T02:51:49.087Z,1003.14
2019-04-16T02:52:50.983Z,1003.15
2019-04-16T02:53:46.310Z,1003.18
2019-04-16T02:54:45.063Z,1003.14
2019-04-16T02:55:44.301Z,1003.15
2019-04-16T02:56:42.165Z,1003.14
2019-04-16T02:57:40.734Z,1003.09
2019-04-16T02:58:39.280Z,1003.14
2019-04-16T02:59:37.867Z,1003.14
2019-04-16T03:00:36.391Z,1003.14
2019-04-16T03:01:34.991Z,1003.17
2019-04-16T03:02:33.631Z,1003.12
2019-04-16T03:03:32.208Z,1003.1
2019-04-16T03:04:30.863Z,1003.14
2019-04-16T03:05:29.822Z,1003.09
2019-04-16T03:06:31.592Z,1003.07
2019-04-16T03:07:26.796Z,1003.09
2019-04-16T03:08:25.429Z,1003.08
2019-04-16T03:09:24.049Z,1003.11
2019-04-16T03:10:22.796Z,1003.11
2019-04-16T03:11:21.430Z,1003.04
2019-04-16T03:12:20.813Z,1003.08
2019-04-16T03:13:22.967Z,1003.08
2019-04-16T03:14:17.215Z,1003.06
2019-04-16T03:15:15.773Z,1003.05
2019-04-16T03:16:14.411Z,1003.05
2019-04-16T03:17:12.995Z,1003.02
2019-04-16T03:18:14.733Z,1003.08
2019-04-16T03:19:10.196Z,1003.02
2019-04-16T03:20:08.902Z,1003.07
2019-04-16T03:21:07.490Z,1003.04
2019-04-16T03:22:06.072Z,1003.02
2019-04-16T03:23:05.724Z,1003.07
2019-04-16T03:24:07.933Z,1003.07
2019-04-16T03:25:01.981Z,1003.06
2019-04-16T03:26:00.615Z,1003.02
2019-04-16T03:26:59.701Z,1003.05
2019-04-16T03:27:58.273Z,1003
2019-04-16T03:28:59.063Z,1003.05
2019-04-16T03:29:55.601Z,1002.99
2019-04-16T03:30:54.196Z,1003.03
2019-04-16T03:31:57.260Z,1003.06
2019-04-16T03:32:51.460Z,1003.06
2019-04-16T03:33:50.939Z,1003.02
2019-04-16T03:34:50.456Z,1003
2019-04-16T03:35:47.343Z,1002.98
2019-04-16T03:36:45.946Z,1002.99
2019-04-16T03:37:44.577Z,1003.01
2019-04-16T03:38:43.214Z,1002.99
2019-04-16T03:39:44.638Z,1003.01
2019-04-16T03:40:40.815Z,1002.94
2019-04-16T03:41:39.502Z,1002.99
2019-04-16T03:42:38.038Z,1002.97
2019-04-16T03:43:36.669Z,1003.01
2019-04-16T03:44:37.125Z,1002.98
2019-04-16T03:45:33.782Z,1002.92
2019-04-16T03:46:32.380Z,1002.94
2019-04-16T03:47:30.982Z,1002.96
2019-04-16T03:48:29.565Z,1002.96
2019-04-16T03:49:28.483Z,1003
2019-04-16T03:50:30.994Z,1002.98
2019-04-16T03:51:25.465Z,1002.99
2019-04-16T03:52:24.097Z,1002.96
2019-04-16T03:53:22.661Z,1002.98
2019-04-16T03:54:22.277Z,1002.98
2019-04-16T03:55:24.905Z,1002.98
2019-04-16T03:56:18.419Z,1002.99
2019-04-16T03:57:16.982Z,1003.05
2019-04-16T03:58:15.556Z,1003
2019-04-16T03:59:14.141Z,1003.01
2019-04-16T04:00:13.187Z,1003
2019-04-16T04:01:14.085Z,1003
2019-04-16T04:02:09.892Z,1003.01
2019-04-16T04:03:08.452Z,1002.98
2019-04-16T04:04:07.066Z,1003.03
2019-04-16T04:05:06.633Z,1003.06
2019-04-16T04:06:06.614Z,1003.09
2019-04-16T04:09:43.239Z,1003.08
2019-04-16T04:10:41.835Z,1003.08
2019-04-16T04:11:41.148Z,1003.14
2019-04-16T04:12:39.189Z,1003.11
2019-04-16T04:13:37.744Z,1003.13
2019-04-16T04:14:36.385Z,1003.13
2019-04-16T04:15:35.051Z,1003.15
2019-04-16T04:16:34.461Z,1003.16
2019-04-16T04:17:32.190Z,1003.2
2019-04-16T04:18:30.794Z,1003.2
2019-04-16T04:19:29.358Z,1003.14
2019-04-16T04:20:27.917Z,1003.18
2019-04-16T04:21:26.503Z,1003.16
2019-04-16T04:22:25.750Z,1003.21
2019-04-16T04:24:47.857Z,1003.21
2019-04-16T04:25:46.512Z,1003.22
2019-04-16T04:28:09.355Z,1003.27
2019-04-16T04:29:07.904Z,1003.3
2019-04-16T04:38:07.700Z,1003.32
2019-04-16T04:39:09.135Z,1003.23
2019-04-16T04:40:05.063Z,1003.27
2019-04-16T04:41:03.664Z,1003.21
2019-04-16T04:42:02.235Z,1003.27
2019-04-16T04:43:01.719Z,1003.26
2019-04-16T04:44:03.778Z,1003.28
2019-04-16T04:44:58.001Z,1003.32
2019-04-16T04:45:56.658Z,1003.29
2019-04-16T04:46:55.441Z,1003.29
2019-04-16T04:47:54.000Z,1003.35
2019-04-16T04:48:55.308Z,1003.32
2019-04-16T04:49:51.439Z,1003.36
2019-04-16T04:50:50.035Z,1003.42
2019-04-16T04:51:48.585Z,1003.38
2019-04-16T04:52:47.276Z,1003.38
2019-04-16T04:53:47.444Z,1003.36
2019-04-16T04:54:44.434Z,1003.39
2019-04-16T04:55:43.309Z,1003.39
2019-04-16T04:56:41.862Z,1003.42
2019-04-16T04:57:40.407Z,1003.47
2019-04-16T04:58:38.947Z,1003.44
2019-04-16T04:59:37.589Z,1003.48
2019-04-16T05:00:37.411Z,1003.5
2019-04-16T05:01:34.933Z,1003.51
2019-04-16T05:05:13.694Z,1003.6
2019-04-16T05:06:12.306Z,1003.65
2019-04-16T05:07:10.883Z,1003.66
2019-04-16T05:08:09.419Z,1003.69
2019-04-16T05:09:08.010Z,1003.72
2019-04-16T05:10:07.321Z,1003.71
2019-04-16T05:11:05.250Z,1003.71
2019-04-16T05:12:03.844Z,1003.78
2019-04-16T05:13:02.496Z,1003.73
2019-04-16T05:14:01.160Z,1003.73
2019-04-16T05:14:59.845Z,1003.76
2019-04-16T05:16:01.786Z,1003.79
2019-04-16T05:16:57.095Z,1003.78
2019-04-16T05:17:55.678Z,1003.79
2019-04-16T05:18:54.657Z,1003.83
2019-04-16T05:28:31.503Z,1003.89
2019-04-16T05:29:30.068Z,1003.92
2019-04-16T05:30:28.653Z,1003.93
2019-04-16T05:31:27.298Z,1003.9
2019-04-16T05:32:26.396Z,1003.91
2019-04-16T05:33:24.397Z,1003.95
2019-04-16T05:34:23.155Z,1004.05
2019-04-16T05:35:21.849Z,1004.07
2019-04-16T05:36:21.248Z,1004.03
2019-04-16T05:37:19.775Z,1004.07
2019-04-16T05:38:20.393Z,1004.11
2019-04-16T05:39:16.428Z,1004.14
2019-04-16T05:40:15.208Z,1004.16
2019-04-16T05:41:20.201Z,1004.2
2019-04-16T05:42:12.480Z,1004.23
2019-04-16T05:43:11.489Z,1004.29
2019-04-16T05:44:10.144Z,1004.31
2019-04-16T05:45:08.710Z,1004.32
2019-04-16T05:46:08.710Z,1004.32
2019-04-16T05:47:05.930Z,1004.32
2019-04-16T05:48:04.543Z,1004.32
2019-04-16T05:49:03.264Z,1004.32
2019-04-16T05:50:01.846Z,1004.29
2019-04-16T05:51:00.715Z,1004.33
2019-04-16T05:52:02.678Z,1004.35
2019-04-16T05:52:57.547Z,1004.35
2019-04-16T05:53:56.183Z,1004.37
2019-04-16T05:54:54.919Z,1004.37
2019-04-16T05:55:53.784Z,1004.34
2019-04-16T05:56:55.445Z,1004.37
2019-04-16T05:57:50.977Z,1004.34
2019-04-16T05:58:49.524Z,1004.37
2019-04-16T05:59:48.096Z,1004.33
2019-04-16T06:00:46.634Z,1004.38
2019-04-16T06:01:46.183Z,1004.37
2019-04-16T06:02:43.941Z,1004.37
2019-04-16T06:03:42.514Z,1004.33
2019-04-16T06:04:41.215Z,1004.34
2019-04-16T06:05:39.795Z,1004.34
2019-04-16T06:06:38.400Z,1004.31
2019-04-16T06:07:37.955Z,1004.33
2019-04-16T06:08:40.393Z,1004.33
2019-04-16T06:09:34.268Z,1004.37
2019-04-16T06:10:32.886Z,1004.33
2019-04-16T06:11:35.623Z,1004.34
2019-04-16T06:12:32.513Z,1004.32
2019-04-16T06:13:28.818Z,1004.33
2019-04-16T06:14:27.569Z,1004.29
2019-04-16T06:15:26.224Z,1004.31
2019-04-16T06:16:25.696Z,1004.27
2019-04-16T06:17:25.396Z,1004.25
2019-04-16T06:18:21.970Z,1004.28
2019-04-16T06:19:20.502Z,1004.25
2019-04-16T06:20:20.983Z,1004.22
2019-04-16T06:21:17.916Z,1004.17
2019-04-16T06:22:16.588Z,1004.16
2019-04-16T06:23:15.290Z,1004.14
2019-04-16T06:24:14.348Z,1004.15
2019-04-16T06:27:52.736Z,1004.06
2019-04-16T06:28:54.915Z,1004.08
2019-04-16T06:29:49.997Z,1004.09
2019-04-16T06:30:48.769Z,1004.1
2019-04-16T06:31:47.379Z,1004.1
2019-04-16T06:32:45.991Z,1004.14
2019-04-16T06:33:44.718Z,1004.17
2019-04-16T06:34:43.440Z,1004.16
2019-04-16T06:35:43.268Z,1004.17
2019-04-16T06:36:40.510Z,1004.21
2019-04-16T06:37:39.291Z,1004.21
2019-04-16T06:38:37.855Z,1004.23
2019-04-16T06:39:36.569Z,1004.22
2019-04-16T06:40:35.106Z,1004.26
2019-04-16T06:41:41.361Z,1004.23
2019-04-16T06:42:32.225Z,1004.24
2019-04-16T06:43:30.916Z,1004.34
2019-04-16T06:44:31.260Z,1004.31
2019-04-16T06:45:28.159Z,1004.36
2019-04-16T06:46:26.711Z,1004.4
2019-04-16T06:47:25.405Z,1004.37
2019-04-16T06:48:23.945Z,1004.43
2019-04-16T06:49:22.542Z,1004.41
2019-04-16T06:50:31.014Z,1004.43
2019-04-16T06:56:20.180Z,1004.34
2019-04-16T06:57:16.834Z,1004.29
2019-04-16T06:58:16.190Z,1004.31
2019-04-16T06:59:16.718Z,1004.24
2019-04-16T07:00:12.337Z,1004.27
2019-04-16T07:01:10.914Z,1004.27
2019-04-16T07:02:10.494Z,1004.26
2019-04-16T07:03:08.160Z,1004.3
2019-04-16T07:04:07.060Z,1004.28
2019-04-16T07:05:05.593Z,1004.33
2019-04-16T07:06:04.764Z,1004.33
2019-04-16T07:07:07.720Z,1004.4
2019-04-16T07:08:01.367Z,1004.38
2019-04-16T07:08:59.906Z,1004.37
2019-04-16T07:09:58.459Z,1004.36
2019-04-16T07:10:57.042Z,1004.38
2019-04-16T07:11:55.686Z,1004.33
2019-04-16T07:12:54.311Z,1004.33
2019-04-16T07:13:52.985Z,1004.35
2019-04-16T07:14:51.555Z,1004.34
2019-04-16T07:15:50.135Z,1004.35
2019-04-16T07:16:48.677Z,1004.34
2019-04-16T07:17:47.365Z,1004.37
2019-04-16T07:18:45.945Z,1004.39
2019-04-16T07:19:44.498Z,1004.39
2019-04-16T07:20:45.641Z,1004.36
2019-04-16T07:21:41.705Z,1004.35
2019-04-16T07:22:40.233Z,1004.38
2019-04-16T07:23:39.252Z,1004.37
2019-04-16T07:24:38.537Z,1004.34
2019-04-16T07:25:41.220Z,1004.35
2019-04-16T07:26:38.169Z,1004.37
2019-04-16T07:27:37.969Z,1004.38
2019-04-16T07:28:32.540Z,1004.35
2019-04-16T07:29:32.858Z,1004.31
2019-04-16T07:30:29.932Z,1004.32
2019-04-16T07:31:33.061Z,1004.3
2019-04-16T07:32:27.285Z,1004.33
2019-04-16T07:33:25.742Z,1004.4
2019-04-16T07:34:24.295Z,1004.35
2019-04-16T07:35:22.906Z,1004.43
2019-04-16T07:36:24.125Z,1004.44
2019-04-16T07:37:20.022Z,1004.43
2019-04-16T07:38:18.575Z,1004.45
2019-04-16T07:39:28.614Z,1004.43
2019-04-16T07:40:15.911Z,1004.37
2019-04-16T07:41:16.987Z,1004.38
2019-04-16T07:42:20.710Z,1004.38
2019-04-16T07:43:15.255Z,1004.36
2019-04-16T07:44:11.186Z,1004.37
2019-04-16T07:45:12.424Z,1004.38
2019-04-16T07:46:07.569Z,1004.46
2019-04-16T07:47:06.151Z,1004.43
2019-04-16T07:48:06.367Z,1004.49
2019-04-16T07:49:03.263Z,1004.5
2019-04-16T07:50:01.838Z,1004.48
2019-04-16T07:51:01.509Z,1004.41
2019-04-16T07:51:59.149Z,1004.38
2019-04-16T07:52:57.810Z,1004.41
2019-04-16T07:53:56.356Z,1004.37
2019-04-16T07:54:55.086Z,1004.41
2019-04-16T07:55:53.863Z,1004.45
2019-04-16T07:56:52.610Z,1004.44
2019-04-16T07:57:51.245Z,1004.39
2019-04-16T07:58:49.933Z,1004.42
2019-04-16T07:59:48.685Z,1004.4
2019-04-16T08:00:47.230Z,1004.41
2019-04-16T08:01:47.659Z,1004.41
2019-04-16T08:02:44.475Z,1004.39
2019-04-16T08:03:43.240Z,1004.39
2019-04-16T08:04:41.813Z,1004.37
2019-04-16T08:05:40.992Z,1004.42
2019-04-16T08:06:39.056Z,1004.41
2019-04-16T08:07:37.653Z,1004.37
2019-04-16T08:08:36.259Z,1004.41
2019-04-16T08:09:34.835Z,1004.42
2019-04-16T08:10:33.494Z,1004.38
2019-04-16T08:11:31.998Z,1004.36
2019-04-16T08:12:31.053Z,1004.35
2019-04-16T08:13:33.011Z,1004.39
2019-04-16T08:14:27.711Z,1004.4
2019-04-16T08:15:28.313Z,1004.41
2019-04-16T08:16:26.956Z,1004.38
2019-04-16T08:17:25.535Z,1004.37
2019-04-16T08:18:24.133Z,1004.43
2019-04-16T08:19:35.964Z,1004.39
2019-04-16T08:20:21.525Z,1004.37
2019-04-16T08:21:22.435Z,1004.39
2019-04-16T08:22:18.699Z,1004.43
2019-04-16T08:23:19.612Z,1004.38
2019-04-16T08:24:16.204Z,1004.39
2019-04-16T08:25:14.959Z,1004.41
2019-04-16T08:26:13.953Z,1004.42
2019-04-16T08:27:17.790Z,1004.46
2019-04-16T08:28:10.678Z,1004.43
2019-04-16T08:29:09.220Z,1004.47
2019-04-16T08:30:07.785Z,1004.43
2019-04-16T08:31:10.449Z,1004.48
2019-04-16T08:32:04.922Z,1004.46
2019-04-16T08:33:03.597Z,1004.47
2019-04-16T08:34:02.179Z,1004.51
2019-04-16T08:35:00.817Z,1004.53
2019-04-16T08:35:59.560Z,1004.55
2019-04-16T08:36:58.115Z,1004.56
2019-04-16T08:37:58.276Z,1004.56
2019-04-16T08:38:55.422Z,1004.59
2019-04-16T08:39:53.811Z,1004.57
2019-04-16T08:40:52.318Z,1004.55
2019-04-16T08:41:52.342Z,1004.57
2019-04-16T08:42:49.485Z,1004.58
2019-04-16T08:43:48.341Z,1004.57
2019-04-16T08:44:47.214Z,1004.6
2019-04-16T08:45:45.782Z,1004.57
2019-04-16T08:46:44.329Z,1004.59
2019-04-16T08:47:44.877Z,1004.59
2019-04-16T08:48:41.781Z,1004.58
2019-04-16T08:49:40.348Z,1004.53
2019-04-16T08:50:39.025Z,1004.53
2019-04-16T08:51:37.956Z,1004.51
2019-04-16T08:52:38.496Z,1004.53
2019-04-16T08:53:35.657Z,1004.48
2019-04-16T08:54:33.499Z,1004.42
2019-04-16T08:55:32.052Z,1004.47
2019-04-16T08:56:30.752Z,1004.46
2019-04-16T08:57:31.991Z,1004.49
2019-04-16T08:58:28.093Z,1004.48
2019-04-16T08:59:26.698Z,1004.47
2019-04-16T09:00:25.841Z,1004.49
2019-04-16T09:01:24.570Z,1004.46
2019-04-16T09:02:23.454Z,1004.47
2019-04-16T09:03:21.864Z,1004.48
2019-04-16T09:04:20.633Z,1004.51
2019-04-16T09:05:19.356Z,1004.51
2019-04-16T09:06:17.791Z,1004.53
2019-04-16T09:07:19.691Z,1004.51
2019-04-16T09:08:15.006Z,1004.5
2019-04-16T09:09:18.148Z,1004.5
2019-04-16T09:10:17.980Z,1004.45
2019-04-16T09:11:22.136Z,1004.48
2019-04-16T09:12:10.112Z,1004.47
2019-04-16T09:13:08.385Z,1004.46
2019-04-16T09:14:06.794Z,1004.47
2019-04-16T09:15:05.375Z,1004.47
2019-04-16T09:16:03.990Z,1004.49
2019-04-16T09:17:02.558Z,1004.47
2019-04-16T09:18:01.402Z,1004.48
2019-04-16T09:18:59.989Z,1004.48
2019-04-16T09:20:01.280Z,1004.44
2019-04-16T09:20:57.396Z,1004.46
2019-04-16T09:21:55.998Z,1004.46
2019-04-16T09:22:54.732Z,1004.45
2019-04-16T09:23:55.903Z,1004.43
2019-04-16T09:24:51.918Z,1004.43
2019-04-16T09:25:50.520Z,1004.39
2019-04-16T09:26:49.453Z,1004.42
2019-04-16T09:27:48.005Z,1004.45
2019-04-16T09:28:46.556Z,1004.45
2019-04-16T09:29:45.095Z,1004.44
2019-04-16T09:30:46.574Z,1004.45
2019-04-16T09:31:42.171Z,1004.45
2019-04-16T09:32:40.749Z,1004.44
2019-04-16T09:33:39.601Z,1004.41
2019-04-16T09:37:19.117Z,1004.39
2019-04-16T09:38:17.803Z,1004.37
2019-04-16T09:39:16.366Z,1004.37
2019-04-16T09:40:16.951Z,1004.41
2019-04-16T09:41:13.671Z,1004.41
2019-04-16T09:42:12.210Z,1004.38
2019-04-16T09:43:16.898Z,1004.37
2019-04-16T09:44:09.335Z,1004.36
2019-04-16T09:45:07.975Z,1004.39
2019-04-16T09:46:10.426Z,1004.38
2019-04-16T09:47:05.498Z,1004.44
2019-04-16T09:48:04.000Z,1004.4
2019-04-16T09:49:04.660Z,1004.38
2019-04-16T09:50:01.160Z,1004.39
2019-04-16T09:50:59.707Z,1004.37
2019-04-16T09:51:58.261Z,1004.4
2019-04-16T09:52:56.812Z,1004.41
2019-04-16T09:53:55.648Z,1004.36
2019-04-16T09:54:54.215Z,1004.37
2019-04-16T09:55:52.893Z,1004.39
2019-04-16T09:56:51.507Z,1004.38
2019-04-16T09:57:50.123Z,1004.41
2019-04-16T09:58:48.714Z,1004.42
2019-04-16T09:59:47.769Z,1004.48
2019-04-16T10:00:47.127Z,1004.44
2019-04-16T10:01:44.605Z,1004.41
2019-04-16T10:02:43.292Z,1004.44
2019-04-16T10:03:41.931Z,1004.43
2019-04-16T10:04:40.520Z,1004.44
2019-04-16T10:05:39.422Z,1004.44
2019-04-16T10:06:38.050Z,1004.49
2019-04-16T10:07:39.598Z,1004.44
2019-04-16T10:08:35.142Z,1004.42
2019-04-16T10:09:33.685Z,1004.39
2019-04-16T10:10:32.369Z,1004.39
2019-04-16T10:11:32.632Z,1004.41
2019-04-16T10:12:29.790Z,1004.45
2019-04-16T10:13:31.709Z,1004.46
2019-04-16T10:14:27.210Z,1004.44
2019-04-16T10:15:25.747Z,1004.46
2019-04-16T10:16:24.313Z,1004.45
2019-04-16T10:17:22.946Z,1004.46
2019-04-16T10:18:21.490Z,1004.45
2019-04-16T10:19:21.668Z,1004.48
2019-04-16T10:20:18.781Z,1004.51
2019-04-16T10:21:19.607Z,1004.47
2019-04-16T10:22:15.941Z,1004.47
2019-04-16T10:23:14.575Z,1004.51
2019-04-16T10:24:13.750Z,1004.45
2019-04-16T10:25:11.754Z,1004.46
2019-04-16T10:26:10.313Z,1004.45
2019-04-16T10:27:08.870Z,1004.45
2019-04-16T10:30:47.826Z,1004.44
2019-04-16T10:31:46.371Z,1004.41
2019-04-16T10:32:45.097Z,1004.42
2019-04-16T10:33:43.755Z,1004.4
2019-04-16T10:34:42.349Z,1004.39
2019-04-16T10:35:40.956Z,1004.37
2019-04-16T10:36:39.517Z,1004.36
2019-04-16T10:37:38.061Z,1004.36
2019-04-16T10:38:36.642Z,1004.37
2019-04-16T10:39:35.221Z,1004.31
2019-04-16T10:40:33.882Z,1004.37
2019-04-16T10:41:32.449Z,1004.36
2019-04-16T10:42:31.054Z,1004.37
2019-04-16T10:43:43.535Z,1004.34
2019-04-16T10:44:28.351Z,1004.35
2019-04-16T10:45:27.041Z,1004.32
2019-04-16T10:46:25.602Z,1004.31
2019-04-16T10:47:24.234Z,1004.36
2019-04-16T10:48:22.687Z,1004.3
2019-04-16T10:49:21.262Z,1004.28
2019-04-16T10:50:19.846Z,1004.31
2019-04-16T10:51:18.356Z,1004.26
2019-04-16T10:52:17.274Z,1004.3
2019-04-16T10:53:15.933Z,1004.3
2019-04-16T10:54:14.700Z,1004.31
2019-04-16T10:55:13.352Z,1004.25
2019-04-16T10:56:12.124Z,1004.27
2019-04-16T10:57:10.714Z,1004.28
2019-04-16T10:59:03.502Z,1004.22
2019-04-16T11:00:02.098Z,1004.25
2019-04-16T11:01:00.568Z,1004.28
2019-04-16T11:01:59.169Z,1004.23
2019-04-16T11:02:57.915Z,1004.21
2019-04-16T11:03:56.545Z,1004.22
2019-04-16T11:04:55.476Z,1004.16
2019-04-16T11:05:56.928Z,1004.19
2019-04-16T11:06:52.659Z,1004.22
2019-04-16T11:07:51.562Z,1004.2
2019-04-16T11:08:50.226Z,1004.17
2019-04-16T11:09:48.858Z,1004.22
2019-04-16T11:10:47.545Z,1004.2
2019-04-16T11:11:46.167Z,1004.2
2019-04-16T11:12:44.978Z,1004.17
2019-04-16T11:13:43.287Z,1004.14
2019-04-16T11:14:41.833Z,1004.16
2019-04-16T11:15:40.404Z,1004.13
2019-04-16T11:16:39.183Z,1004.12
2019-04-16T11:17:37.870Z,1004.11
2019-04-16T11:18:36.409Z,1004.13
2019-04-16T11:19:35.180Z,1004.09
2019-04-16T11:20:33.802Z,1004.08
2019-04-16T11:21:32.436Z,1004.07
2019-04-16T11:22:31.040Z,1004.05
2019-04-16T11:23:29.710Z,1004
2019-04-16T11:24:28.268Z,1004.04
2019-04-16T11:25:26.924Z,1004.05
2019-04-16T11:26:25.592Z,1004.04
2019-04-16T11:27:24.179Z,1004.04
2019-04-16T11:28:22.853Z,1004
2019-04-16T11:29:21.407Z,1004.03
2019-04-16T11:30:19.952Z,1004.03
2019-04-16T11:31:18.497Z,1004.06
2019-04-16T11:32:17.074Z,1004.06
2019-04-16T11:33:15.610Z,1004.05
2019-04-16T11:34:14.204Z,1004.04
2019-04-16T11:35:16.676Z,1004.04
2019-04-16T11:36:19.177Z,1004.01
2019-04-16T11:37:10.025Z,1004.01
2019-04-16T11:38:08.636Z,1004.01
2019-04-16T11:39:07.894Z,1004.04
2019-04-16T11:40:06.518Z,1004.04
2019-04-16T11:41:05.196Z,1004.03
2019-04-16T11:42:03.842Z,1004.06
2019-04-16T11:43:02.358Z,1004.1
2019-04-16T11:44:13.754Z,1004.07
2019-04-16T11:44:59.687Z,1004
2019-04-16T11:45:58.262Z,1004.02
2019-04-16T11:46:56.781Z,1004.02
2019-04-16T11:47:55.306Z,1004.03
2019-04-16T11:48:54.003Z,1003.99
2019-04-16T11:49:52.616Z,1004.01
2019-04-16T11:50:51.347Z,1003.96
2019-04-16T11:51:50.036Z,1003.97
2019-04-16T11:52:48.719Z,1004.03
2019-04-16T11:53:47.516Z,1003.97
2019-04-16T11:54:46.991Z,1003.99
2019-04-16T11:55:44.888Z,1003.95
2019-04-16T11:56:43.790Z,1003.99
2019-04-16T11:57:42.341Z,1003.99
2019-04-16T11:58:40.872Z,1003.99
2019-04-16T11:59:39.521Z,1003.97
2019-04-16T12:00:38.063Z,1003.95
2019-04-16T12:01:36.646Z,1003.95
2019-04-16T12:02:38.677Z,1003.91
2019-04-16T12:03:36.392Z,1003.93
2019-04-16T12:04:32.546Z,1003.92
2019-04-16T12:05:31.381Z,1003.91
2019-04-16T12:06:29.952Z,1003.89
2019-04-16T12:07:28.547Z,1003.96
2019-04-16T12:08:27.118Z,1003.94
2019-04-16T12:09:25.863Z,1003.94
2019-04-16T12:10:24.392Z,1003.95
2019-04-16T12:11:22.969Z,1003.99
2019-04-16T12:12:21.650Z,1003.98
2019-04-16T12:13:20.201Z,1003.98
2019-04-16T12:14:29.858Z,1003.93
2019-04-16T12:15:17.519Z,1003.95
2019-04-16T12:16:16.191Z,1003.92
2019-04-16T12:17:14.687Z,1003.96
2019-04-16T12:18:13.302Z,1003.96
2019-04-16T12:19:11.868Z,1003.99
2019-04-16T12:20:10.506Z,1003.94
2019-04-16T12:21:09.370Z,1003.93
2019-04-16T12:22:07.999Z,1004.01
2019-04-16T12:23:06.650Z,1003.96
2019-04-16T12:24:05.260Z,1003.95
2019-04-16T12:25:04.093Z,1004.01
2019-04-16T12:26:02.445Z,1003.99
2019-04-16T12:27:01.161Z,1004.01
2019-04-16T12:28:01.529Z,1004.01
2019-04-16T12:28:58.334Z,1003.99
2019-04-16T12:29:56.921Z,1004.02
2019-04-16T12:30:55.557Z,1003.98
2019-04-16T12:31:54.131Z,1004.03